createdAt,value
2023-04-09T00:00:29.907Z,14.85
2023-04-09T00:02:57.919Z,15.01
2023-04-09T00:05:27.220Z,15.14
2023-04-09T00:07:55.499Z,15.06
2023-04-09T00:10:23.500Z,15.79
2023-04-09T00:12:51.517Z,15.33
2023-04-09T00:15:30.078Z,16.12
2023-04-09T00:17:58.961Z,16.05
2023-04-09T00:20:28.327Z,16.36
2023-04-09T00:22:56.503Z,16.73
2023-04-09T00:25:24.485Z,16.04
2023-04-09T00:27:52.380Z,16.52
2023-04-09T00:32:48.779Z,16.66
2023-04-09T00:35:17.552Z,16.58
2023-04-09T00:37:46.806Z,17.13
2023-04-09T00:40:15.416Z,16.78
2023-04-09T00:42:43.255Z,16.26
2023-04-09T00:45:11.704Z,17.05
2023-04-09T00:47:39.806Z,17.40
2023-04-09T00:50:08.556Z,17.35
2023-04-09T00:52:36.948Z,17.53
2023-04-09T00:55:07.425Z,18.25
2023-04-09T00:57:35.982Z,18.72
2023-04-09T01:00:04.752Z,19.14
2023-04-09T01:02:32.963Z,18.72
2023-04-09T01:05:01.155Z,19.22
2023-04-09T01:07:42.316Z,19.06
2023-04-09T01:10:22.513Z,19.35
2023-04-09T01:13:05.371Z,19.96
2023-04-09T01:15:39.999Z,19.64
2023-04-09T01:18:12.349Z,19.66
2023-04-09T01:20:43.460Z,20.28
2023-04-09T01:23:20.517Z,19.84
2023-04-09T01:26:05.539Z,20.20
2023-04-09T01:28:40.521Z,20.39
2023-04-09T01:31:13.558Z,20.25
2023-04-09T01:33:43.120Z,19.79
2023-04-09T01:36:12.346Z,20.04
2023-04-09T01:38:43.148Z,20.11
2023-04-09T01:41:15.904Z,19.88
2023-04-09T01:43:46.574Z,19.64
2023-04-09T01:46:16.957Z,19.51
2023-04-09T01:48:45.111Z,19.72
2023-04-09T01:51:14.158Z,19.59
2023-04-09T01:53:42.587Z,19.78
2023-04-09T01:56:11.182Z,20.11
2023-04-09T01:58:39.098Z,19.50
2023-04-09T02:01:13.700Z,20.35
2023-04-09T02:03:48.017Z,19.91
2023-04-09T02:06:27.080Z,20.11
2023-04-09T02:08:55.394Z,20.96
2023-04-09T02:11:25.970Z,20.83
2023-04-09T02:13:56.840Z,20.00
2023-04-09T02:16:28.443Z,20.83
2023-04-09T02:18:57.056Z,19.88
2023-04-09T02:21:27.064Z,19.90
2023-04-09T02:23:55.662Z,20.15
2023-04-09T02:26:24.105Z,19.87
2023-04-09T02:28:52.642Z,19.80
2023-04-09T02:31:20.837Z,20.02
2023-04-09T02:33:50.106Z,19.84
2023-04-09T02:36:17.967Z,19.83
2023-04-09T02:38:45.870Z,19.30
2023-04-09T02:41:14.018Z,19.08
2023-04-09T02:43:41.939Z,18.69
2023-04-09T02:46:14.813Z,18.93
2023-04-09T02:48:42.688Z,18.81
2023-04-09T02:51:11.904Z,18.35
2023-04-09T02:53:41.094Z,18.91
2023-04-09T02:56:08.960Z,19.83
2023-04-09T02:58:36.763Z,25.46
2023-04-09T03:01:05.112Z,25.31
2023-04-09T03:03:33.057Z,22.06
2023-04-09T03:06:00.985Z,20.42
2023-04-09T03:08:30.206Z,19.72
2023-04-09T03:10:58.088Z,19.07
2023-04-09T03:13:25.965Z,18.18
2023-04-09T03:15:54.047Z,18.22
2023-04-09T03:18:22.107Z,18.52
2023-04-09T03:20:49.938Z,19.36
2023-04-09T03:23:18.101Z,19.73
2023-04-09T03:25:50.449Z,19.80
2023-04-09T03:28:18.322Z,20.32
2023-04-09T03:30:46.189Z,20.78
2023-04-09T03:33:14.025Z,21.16
2023-04-09T03:35:43.652Z,20.87
2023-04-09T03:38:11.537Z,20.78
2023-04-09T03:40:39.406Z,20.35
2023-04-09T03:43:08.625Z,19.86
2023-04-09T03:45:36.646Z,19.96
2023-04-09T03:48:04.705Z,19.38
2023-04-09T03:50:32.591Z,19.09
2023-04-09T03:53:00.829Z,18.61
2023-04-09T03:55:28.705Z,18.43
2023-04-09T03:57:56.519Z,18.59
2023-04-09T04:00:25.810Z,18.95
2023-04-09T04:02:53.795Z,19.24
2023-04-09T04:05:24.349Z,19.05
2023-04-09T04:07:52.224Z,19.39
2023-04-09T04:10:20.412Z,18.68
2023-04-09T04:12:48.381Z,19.27
2023-04-09T04:15:16.373Z,19.13
2023-04-09T04:17:45.918Z,18.86
2023-04-09T04:20:14.203Z,19.04
2023-04-09T04:22:42.119Z,19.59
2023-04-09T04:25:10.797Z,19.52
2023-04-09T04:27:38.725Z,21.02
2023-04-09T04:30:08.224Z,20.92
2023-04-09T04:32:36.147Z,20.17
2023-04-09T04:35:05.886Z,21.52
2023-04-09T04:37:33.727Z,21.74
2023-04-09T04:40:02.847Z,20.69
2023-04-09T04:42:30.729Z,21.30
2023-04-09T04:44:58.543Z,22.09
2023-04-09T04:47:33.730Z,22.24
2023-04-09T04:50:01.951Z,22.15
2023-04-09T04:52:31.186Z,22.50
2023-04-09T04:54:59.049Z,22.79
2023-04-09T04:57:26.904Z,22.20
2023-04-09T04:59:54.818Z,22.20
2023-04-09T05:02:22.917Z,22.21
2023-04-09T05:04:50.939Z,22.04
2023-04-09T05:07:18.845Z,22.22
2023-04-09T05:09:48.099Z,22.64
2023-04-09T05:12:17.988Z,22.81
2023-04-09T05:14:46.192Z,22.21
2023-04-09T05:17:14.068Z,22.16
2023-04-09T05:19:41.930Z,22.48
2023-04-09T05:22:09.839Z,21.72
2023-04-09T05:24:37.684Z,22.41
2023-04-09T05:27:06.899Z,22.84
2023-04-09T05:29:34.774Z,21.50
2023-04-09T05:32:02.614Z,21.70
2023-04-09T05:34:30.501Z,21.90
2023-04-09T05:36:58.398Z,22.36
2023-04-09T05:39:26.371Z,22.30
2023-04-09T05:41:54.209Z,21.72
2023-04-09T05:44:23.470Z,21.53
2023-04-09T05:46:51.425Z,21.05
2023-04-09T05:49:19.282Z,22.83
2023-04-09T05:51:47.177Z,23.82
2023-04-09T05:54:15.071Z,24.69
2023-04-09T05:56:44.278Z,24.19
2023-04-09T05:59:12.743Z,24.35
2023-04-09T06:01:41.990Z,24.34
2023-04-09T06:04:10.065Z,23.57
2023-04-09T06:06:39.601Z,23.50
2023-04-09T06:09:07.466Z,23.62
2023-04-09T06:11:35.374Z,24.01
2023-04-09T06:14:03.272Z,23.93
2023-04-09T06:16:31.136Z,24.01
2023-04-09T06:19:00.616Z,24.20
2023-04-09T06:21:28.501Z,23.65
2023-04-09T06:23:56.625Z,23.18
2023-04-09T06:26:24.536Z,23.46
2023-04-09T06:28:52.444Z,23.63
2023-04-09T06:31:20.518Z,23.52
2023-04-09T06:33:48.438Z,23.54
2023-04-09T06:36:17.665Z,23.44
2023-04-09T06:38:45.555Z,23.04
2023-04-09T06:41:14.816Z,23.09
2023-04-09T06:43:42.737Z,23.74
2023-04-09T06:46:10.909Z,23.03
2023-04-09T06:48:38.921Z,22.93
2023-04-09T06:51:08.496Z,22.55
2023-04-09T06:53:40.780Z,22.66
2023-04-09T06:56:08.850Z,21.88
2023-04-09T06:58:39.754Z,23.46
2023-04-09T07:01:07.838Z,22.83
2023-04-09T07:03:36.070Z,21.96
2023-04-09T07:06:04.302Z,22.53
2023-04-09T07:08:32.230Z,23.07
2023-04-09T07:11:01.547Z,24.21
2023-04-09T07:13:29.564Z,23.37
2023-04-09T07:15:57.488Z,23.21
2023-04-09T07:18:25.404Z,23.01
2023-04-09T07:20:53.689Z,22.72
2023-04-09T07:23:22.936Z,23.16
2023-04-09T07:25:50.836Z,22.50
2023-04-09T07:28:20.157Z,22.59
2023-04-09T07:30:48.036Z,22.33
2023-04-09T07:33:15.951Z,22.01
2023-04-09T07:35:43.900Z,22.04
2023-04-09T07:38:11.833Z,21.87
2023-04-09T07:40:39.765Z,22.25
2023-04-09T07:43:07.704Z,21.49
2023-04-09T07:45:37.095Z,20.67
2023-04-09T07:48:05.272Z,20.67
2023-04-09T07:50:33.245Z,21.14
2023-04-09T07:53:01.164Z,21.25
2023-04-09T07:55:29.479Z,20.57
2023-04-09T07:57:57.457Z,20.02
2023-04-09T08:00:25.558Z,19.46
2023-04-09T08:02:55.094Z,20.32
2023-04-09T08:05:23.398Z,19.38
2023-04-09T08:07:52.333Z,19.01
2023-04-09T08:10:20.482Z,19.09
2023-04-09T08:12:49.794Z,20.34
2023-04-09T08:15:17.768Z,20.56
2023-04-09T08:17:45.705Z,20.19
2023-04-09T08:20:16.965Z,20.25
2023-04-09T08:22:45.350Z,19.88
2023-04-09T08:25:13.271Z,18.14
2023-04-09T08:27:41.341Z,17.68
2023-04-09T08:30:10.604Z,17.22
2023-04-09T08:32:38.716Z,18.08
2023-04-09T08:35:12.035Z,17.66
2023-04-09T08:37:41.287Z,18.30
2023-04-09T08:40:11.664Z,17.38
2023-04-09T08:42:46.095Z,18.09
2023-04-09T08:45:14.808Z,18.55
2023-04-09T08:47:46.463Z,18.75
2023-04-09T08:50:15.421Z,18.80
2023-04-09T08:52:48.076Z,18.13
2023-04-09T08:55:16.023Z,17.79
2023-04-09T08:57:44.422Z,18.58
2023-04-09T09:00:13.664Z,18.44
2023-04-09T09:03:03.489Z,19.15
2023-04-09T09:05:39.427Z,18.96
2023-04-09T09:08:10.339Z,19.20
2023-04-09T09:10:39.944Z,18.52
2023-04-09T09:13:22.510Z,18.53
2023-04-09T09:15:55.072Z,17.58
2023-04-09T09:18:39.468Z,17.38
2023-04-09T09:21:14.673Z,16.96
2023-04-09T09:23:44.343Z,17.86
2023-04-09T09:26:14.187Z,18.81
2023-04-09T09:28:42.739Z,17.71
2023-04-09T09:31:11.996Z,17.57
2023-04-09T09:33:40.765Z,17.67
2023-04-09T09:36:09.455Z,18.03
2023-04-09T09:38:55.038Z,17.50
2023-04-09T09:41:23.858Z,16.43
2023-04-09T09:43:52.937Z,19.45
2023-04-09T09:46:22.914Z,21.33
2023-04-09T09:48:51.350Z,21.27
2023-04-09T09:51:23.377Z,17.62
2023-04-09T09:53:56.539Z,19.91
2023-04-09T09:56:32.218Z,17.40
2023-04-09T09:59:08.907Z,17.01
2023-04-09T10:01:37.344Z,16.93
2023-04-09T10:04:08.656Z,15.54
2023-04-09T10:06:38.325Z,14.86
2023-04-09T10:09:08.388Z,15.13
2023-04-09T10:11:38.270Z,15.75
2023-04-09T10:14:06.569Z,16.14
2023-04-09T10:16:35.443Z,15.98
2023-04-09T10:19:04.436Z,16.49
2023-04-09T10:21:44.704Z,16.82
2023-04-09T10:24:14.319Z,15.13
2023-04-09T10:26:44.727Z,15.05
2023-04-09T10:29:15.175Z,14.72
2023-04-09T10:31:53.180Z,14.16
2023-04-09T10:34:24.874Z,14.30
2023-04-09T10:36:56.983Z,14.53
2023-04-09T10:39:29.971Z,14.04
2023-04-09T10:41:59.918Z,13.51
2023-04-09T10:44:31.813Z,13.25
2023-04-09T10:47:00.315Z,14.50
2023-04-09T10:49:28.727Z,13.77
2023-04-09T10:52:04.639Z,14.03
2023-04-09T10:54:45.806Z,13.87
2023-04-09T10:57:22.224Z,11.91
2023-04-09T10:59:52.333Z,12.20
2023-04-09T11:03:07.934Z,13.03
2023-04-09T11:05:38.369Z,13.06
2023-04-09T11:08:09.503Z,14.00
2023-04-09T11:10:41.000Z,14.63
2023-04-09T11:13:12.456Z,13.76
2023-04-09T11:15:40.963Z,13.78
2023-04-09T11:18:09.969Z,14.40
2023-04-09T11:20:38.363Z,14.76
2023-04-09T11:23:06.497Z,13.73
2023-04-09T11:25:35.817Z,13.89
2023-04-09T11:28:06.082Z,13.64
2023-04-09T11:30:35.755Z,13.76
2023-04-09T11:33:03.934Z,15.02
2023-04-09T11:35:34.925Z,15.42
2023-04-09T11:38:06.859Z,15.66
2023-04-09T11:40:35.173Z,14.80
2023-04-09T11:43:03.951Z,16.04
2023-04-09T11:45:33.757Z,15.98
2023-04-09T11:48:03.874Z,15.99
2023-04-09T11:50:33.166Z,15.68
2023-04-09T11:53:01.398Z,15.20
2023-04-09T11:55:30.659Z,15.21
2023-04-09T11:58:01.139Z,15.62
2023-04-09T12:00:30.071Z,15.30
2023-04-09T12:03:04.624Z,15.21
2023-04-09T12:05:35.269Z,15.89
2023-04-09T12:08:06.191Z,15.58
2023-04-09T12:10:36.356Z,16.49
2023-04-09T12:13:07.746Z,16.62
2023-04-09T12:15:37.562Z,15.39
2023-04-09T12:18:10.573Z,15.84
2023-04-09T12:20:40.748Z,15.48
2023-04-09T12:23:10.477Z,14.94
2023-04-09T12:25:40.875Z,14.80
2023-04-09T12:28:10.816Z,14.81
2023-04-09T12:30:38.958Z,14.90
2023-04-09T12:33:10.769Z,14.58
2023-04-09T12:35:39.365Z,14.36
2023-04-09T12:38:07.571Z,14.94
2023-04-09T12:40:36.930Z,14.79
2023-04-09T12:43:07.917Z,14.19
2023-04-09T12:45:35.866Z,14.08
2023-04-09T12:48:03.749Z,13.88
2023-04-09T12:50:33.323Z,14.25
2023-04-09T12:53:01.561Z,14.33
2023-04-09T12:55:29.559Z,13.89
2023-04-09T12:57:57.520Z,14.14
2023-04-09T13:00:30.923Z,13.93
2023-04-09T13:02:59.008Z,13.88
2023-04-09T13:05:27.098Z,14.44
2023-04-09T13:07:56.342Z,14.20
2023-04-09T13:10:26.304Z,13.99
2023-04-09T13:12:54.239Z,14.94
2023-04-09T13:15:22.274Z,15.41
2023-04-09T13:17:50.463Z,15.14
2023-04-09T13:20:18.584Z,15.60
2023-04-09T13:22:48.863Z,15.58
2023-04-09T13:25:18.297Z,14.21
2023-04-09T13:27:46.204Z,14.36
2023-04-09T13:30:14.112Z,14.76
2023-04-09T13:32:42.232Z,14.82
2023-04-09T13:35:16.230Z,14.73
2023-04-09T13:37:44.206Z,14.33
2023-04-09T13:40:12.963Z,14.56
2023-04-09T13:42:42.206Z,14.60
2023-04-09T13:45:10.974Z,14.53
2023-04-09T13:47:38.878Z,14.89
2023-04-09T13:50:13.170Z,12.65
2023-04-09T13:52:41.133Z,12.88
2023-04-09T13:55:12.101Z,12.63
2023-04-09T13:57:40.027Z,12.69
2023-04-09T14:00:10.899Z,13.15
2023-04-09T14:02:38.976Z,12.57
2023-04-09T14:05:07.759Z,12.97
2023-04-09T14:07:35.971Z,12.51
2023-04-09T14:10:03.987Z,12.73
2023-04-09T14:12:31.989Z,13.07
2023-04-09T14:15:02.464Z,13.53
2023-04-09T14:17:31.811Z,12.73
2023-04-09T14:20:00.122Z,12.62
2023-04-09T14:22:30.060Z,12.70
2023-04-09T14:25:01.328Z,12.36
2023-04-09T14:27:29.269Z,12.14
2023-04-09T14:29:57.178Z,12.05
2023-04-09T14:32:25.253Z,11.60
2023-04-09T14:34:57.701Z,11.74
2023-04-09T14:37:28.676Z,12.75
2023-04-09T14:39:56.585Z,12.73
2023-04-09T14:42:24.607Z,12.59
2023-04-09T14:44:52.543Z,11.72
2023-04-09T14:47:20.488Z,12.26
2023-04-09T14:49:54.331Z,12.14
2023-04-09T14:52:23.979Z,12.45
2023-04-09T14:54:54.059Z,13.19
2023-04-09T14:57:21.994Z,12.89
2023-04-09T14:59:49.856Z,12.47
2023-04-09T15:02:24.124Z,13.16
2023-04-09T15:04:52.267Z,13.49
2023-04-09T15:07:20.935Z,12.86
2023-04-09T15:09:51.289Z,12.73
2023-04-09T15:12:19.758Z,13.04
2023-04-09T15:14:47.668Z,12.73
2023-04-09T15:17:15.563Z,12.88
2023-04-09T15:19:49.980Z,13.42
2023-04-09T15:22:17.886Z,12.71
2023-04-09T15:24:46.025Z,15.05
2023-04-09T15:27:16.122Z,14.16
2023-04-09T15:29:44.306Z,11.73
2023-04-09T15:32:12.433Z,11.15
2023-04-09T15:34:40.348Z,13.15
2023-04-09T15:37:08.270Z,12.50
2023-04-09T15:39:36.399Z,13.89
2023-04-09T15:42:09.481Z,13.04
2023-04-09T15:44:40.091Z,12.55
2023-04-09T15:47:08.001Z,12.41
2023-04-09T15:49:36.813Z,13.49
2023-04-09T15:52:05.777Z,13.92
2023-04-09T15:54:33.767Z,12.35
2023-04-09T15:57:01.931Z,13.06
2023-04-09T15:59:32.692Z,11.71
2023-04-09T16:02:02.105Z,12.45
2023-04-09T16:04:33.221Z,12.15
2023-04-09T16:07:02.224Z,11.86
2023-04-09T16:09:30.149Z,11.72
2023-04-09T16:11:58.057Z,11.98
2023-04-09T16:14:25.968Z,11.64
2023-04-09T16:16:53.885Z,13.20
2023-04-09T16:19:24.548Z,13.53
2023-04-09T16:21:52.429Z,12.74
2023-04-09T16:24:20.593Z,13.28
2023-04-09T16:26:48.495Z,13.53
2023-04-09T16:29:17.805Z,13.56
2023-04-09T16:31:46.092Z,14.06
2023-04-09T16:34:14.030Z,15.06
2023-04-09T16:36:44.590Z,14.53
2023-04-09T16:39:12.836Z,14.31
2023-04-09T16:41:44.580Z,16.08
2023-04-09T16:44:12.489Z,14.37
2023-04-09T16:46:44.107Z,14.00
2023-04-09T16:49:14.037Z,13.65
2023-04-09T16:51:43.922Z,13.47
2023-04-09T16:54:13.216Z,12.75
2023-04-09T16:56:41.413Z,13.18
2023-04-09T16:59:09.371Z,13.63
2023-04-09T17:01:37.394Z,14.20
2023-04-09T17:04:11.395Z,14.26
2023-04-09T17:06:39.591Z,13.73
2023-04-09T17:09:08.974Z,13.89
2023-04-09T17:11:38.028Z,14.55
2023-04-09T17:14:06.135Z,14.22
2023-04-09T17:16:34.296Z,14.56
2023-04-09T17:19:03.617Z,14.36
2023-04-09T17:21:38.031Z,14.71
2023-04-09T17:24:06.535Z,14.76
2023-04-09T17:26:35.832Z,15.73
2023-04-09T17:29:03.707Z,15.92
2023-04-09T17:31:31.633Z,16.28
2023-04-09T17:33:59.535Z,16.07
2023-04-09T17:36:27.982Z,16.31
2023-04-09T17:38:56.628Z,16.16
2023-04-09T17:41:27.762Z,16.55
2023-04-09T17:43:57.078Z,17.11
2023-04-09T17:46:27.933Z,16.97
2023-04-09T17:48:55.976Z,17.18
2023-04-09T17:51:23.873Z,17.72
2023-04-09T17:53:54.931Z,17.39
2023-04-09T17:56:23.668Z,18.35
2023-04-09T17:58:51.814Z,17.67
2023-04-09T18:01:24.092Z,18.70
2023-04-09T18:03:55.093Z,17.86
2023-04-09T18:06:23.107Z,18.71
2023-04-09T18:08:52.465Z,18.02
2023-04-09T18:11:21.136Z,18.36
2023-04-09T18:13:49.027Z,18.74
2023-04-09T18:16:17.535Z,17.74
2023-04-09T18:18:47.040Z,18.01
2023-04-09T18:21:16.266Z,17.25
2023-04-09T18:23:44.184Z,17.23
2023-04-09T18:26:12.083Z,17.16
2023-04-09T18:28:40.231Z,17.11
2023-04-09T18:31:08.218Z,16.93
2023-04-09T18:33:36.429Z,16.58
2023-04-09T18:36:06.329Z,16.68
2023-04-09T18:38:34.727Z,15.94
2023-04-09T18:41:02.653Z,16.57
2023-04-09T18:43:31.222Z,15.82
2023-04-09T18:45:59.232Z,14.99
2023-04-09T18:48:27.124Z,15.17
2023-04-09T18:50:55.193Z,15.21
2023-04-09T18:53:25.103Z,15.27
2023-04-09T18:55:53.062Z,14.69
2023-04-09T18:58:21.434Z,14.81
2023-04-09T19:00:51.461Z,15.40
2023-04-09T19:03:20.193Z,15.04
2023-04-09T19:05:48.789Z,14.33
2023-04-09T19:08:16.700Z,14.74
2023-04-09T19:10:47.537Z,14.79
2023-04-09T19:13:15.540Z,14.73
2023-04-09T19:15:43.479Z,14.98
2023-04-09T19:18:11.432Z,15.35
2023-04-09T19:20:39.487Z,14.60
2023-04-09T19:23:07.569Z,15.49
2023-04-09T19:25:36.204Z,15.33
2023-04-09T19:28:05.657Z,15.25
2023-04-09T19:30:33.592Z,14.53
2023-04-09T19:33:01.557Z,15.15
2023-04-09T19:35:29.731Z,15.18
2023-04-09T19:37:57.718Z,14.86
2023-04-09T19:40:25.853Z,15.46
2023-04-09T19:42:53.754Z,15.13
2023-04-09T19:45:23.037Z,14.84
2023-04-09T19:47:51.724Z,15.67
2023-04-09T19:50:20.417Z,15.11
2023-04-09T19:52:48.449Z,15.06
2023-04-09T19:55:16.365Z,15.92
2023-04-09T19:57:46.135Z,15.37
2023-04-09T20:00:16.352Z,16.02
2023-04-09T20:02:45.718Z,15.73
2023-04-09T20:05:14.272Z,15.92
2023-04-09T20:07:43.372Z,15.46
2023-04-09T20:10:11.691Z,15.99
2023-04-09T20:12:39.544Z,15.92
2023-04-09T20:15:09.947Z,15.13
2023-04-09T20:17:38.622Z,15.90
2023-04-09T20:20:10.872Z,15.60
2023-04-09T20:22:43.018Z,15.87
2023-04-09T20:25:11.874Z,16.73
2023-04-09T20:27:39.828Z,15.98
2023-04-09T20:30:08.976Z,16.28
2023-04-09T20:32:37.515Z,16.23
2023-04-09T20:35:08.363Z,15.88
2023-04-09T20:37:36.273Z,16.19
2023-04-09T20:40:04.281Z,16.01
2023-04-09T20:42:32.227Z,16.17
2023-04-09T20:45:01.861Z,16.15
2023-04-09T20:47:30.052Z,15.95
2023-04-09T20:49:59.927Z,16.54
2023-04-09T20:52:29.268Z,16.07
2023-04-09T20:54:58.513Z,16.21
2023-04-09T20:57:27.360Z,16.00
2023-04-09T20:59:56.103Z,16.38
2023-04-09T21:02:24.454Z,16.08
2023-04-09T21:04:52.900Z,16.18
2023-04-09T21:07:21.145Z,16.32
2023-04-09T21:09:51.300Z,16.58
2023-04-09T21:12:21.887Z,16.36
2023-04-09T21:14:52.404Z,16.12
2023-04-09T21:17:21.234Z,16.63
2023-04-09T21:19:49.510Z,16.49
2023-04-09T21:22:17.709Z,16.16
2023-04-09T21:24:46.216Z,17.09
2023-04-09T21:27:16.972Z,17.20
2023-04-09T21:29:45.439Z,17.03
2023-04-09T21:32:13.789Z,16.79
2023-04-09T21:34:42.627Z,17.10
2023-04-09T21:37:11.198Z,17.43
2023-04-09T21:39:39.685Z,17.31
2023-04-09T21:42:08.946Z,17.30
2023-04-09T21:44:39.082Z,16.87
2023-04-09T21:47:09.191Z,17.28
2023-04-09T21:49:40.670Z,16.92
2023-04-09T21:52:15.083Z,17.70
2023-04-09T21:54:44.429Z,17.25
2023-04-09T21:57:13.127Z,17.02
2023-04-09T21:59:43.763Z,17.43
2023-04-09T22:02:12.511Z,17.90
2023-04-09T22:04:42.657Z,17.61
2023-04-09T22:07:12.565Z,18.77
2023-04-09T22:09:40.954Z,18.80
2023-04-09T22:12:09.273Z,18.71
2023-04-09T22:14:38.281Z,18.52
2023-04-09T22:17:09.496Z,18.19
2023-04-09T22:19:37.792Z,18.59
2023-04-09T22:22:06.213Z,18.21
2023-04-09T22:24:34.558Z,18.36
2023-04-09T22:27:03.924Z,18.11
2023-04-09T22:29:33.032Z,17.59
2023-04-09T22:32:02.926Z,17.51
2023-04-09T22:34:33.274Z,17.97
2023-04-09T22:37:02.320Z,17.70
2023-04-09T22:39:31.303Z,17.49
2023-04-09T22:41:59.943Z,17.03
2023-04-09T22:44:28.734Z,17.36
2023-04-09T22:46:57.484Z,16.89
2023-04-09T22:49:26.119Z,16.51
2023-04-09T22:51:56.402Z,17.36
2023-04-09T22:54:25.125Z,17.22
2023-04-09T22:56:53.496Z,16.88
2023-04-09T22:59:25.051Z,17.03
2023-04-09T23:01:56.060Z,16.76
2023-04-09T23:04:25.522Z,16.51
2023-04-09T23:06:57.834Z,16.70
2023-04-09T23:09:26.370Z,17.03
2023-04-09T23:11:54.987Z,17.17
2023-04-09T23:14:24.951Z,16.82
2023-04-09T23:16:53.665Z,16.91
2023-04-09T23:19:22.001Z,16.64
2023-04-09T23:21:50.381Z,16.93
2023-04-09T23:24:20.661Z,16.87
2023-04-09T23:26:49.778Z,16.62
2023-04-09T23:29:18.507Z,16.72
2023-04-09T23:31:47.225Z,16.74
2023-04-09T23:34:15.592Z,16.72
2023-04-09T23:36:45.118Z,16.68
2023-04-09T23:39:13.526Z,17.14
2023-04-09T23:41:43.606Z,16.88
2023-04-09T23:44:11.809Z,17.01
2023-04-09T23:46:43.144Z,16.89
2023-04-09T23:49:11.569Z,16.68
2023-04-09T23:51:40.079Z,16.82
2023-04-09T23:54:08.679Z,17.22
2023-04-09T23:56:37.621Z,16.20
2023-04-09T23:59:07.547Z,16.79
